createdAt,value
2022-09-07T00:02:20.713Z,2.10
2022-09-07T00:04:47.285Z,2.90
2022-09-07T00:07:13.999Z,3.00
2022-09-07T00:09:40.611Z,2.37
2022-09-07T00:12:07.280Z,3.47
2022-09-07T00:14:34.602Z,1.87
2022-09-07T00:17:01.181Z,5.97
2022-09-07T00:19:27.785Z,4.93
2022-09-07T00:21:54.421Z,2.97
2022-09-07T00:24:21.001Z,2.33
2022-09-07T00:26:47.608Z,7.87
2022-09-07T00:29:14.162Z,2.40
2022-09-07T00:31:40.791Z,2.17
2022-09-07T00:34:07.522Z,8.17
2022-09-07T00:36:34.201Z,3.30
2022-09-07T00:39:00.838Z,2.37
2022-09-07T00:41:27.654Z,2.33
2022-09-07T00:43:59.760Z,2.70
2022-09-07T00:46:28.836Z,3.63
2022-09-07T00:48:59.810Z,5.13
2022-09-07T00:51:40.857Z,10.10
2022-09-07T00:54:15.542Z,2.20
2022-09-07T00:56:45.040Z,4.50
2022-09-07T00:59:14.353Z,5.93
2022-09-07T01:01:41.447Z,1.97
2022-09-07T01:04:09.178Z,4.23
2022-09-07T01:06:37.586Z,3.00
2022-09-07T01:09:07.137Z,4.70
2022-09-07T01:11:35.118Z,3.73
2022-09-07T01:14:04.853Z,3.47
2022-09-07T01:17:05.318Z,2.43
2022-09-07T01:19:59.497Z,2.50
2022-09-07T01:22:52.467Z,2.90
2022-09-07T01:25:49.695Z,4.03
2022-09-07T01:28:21.832Z,4.60
2022-09-07T01:30:58.061Z,2.40
2022-09-07T01:33:48.840Z,3.87
2022-09-07T01:36:18.167Z,4.37
2022-09-07T01:38:50.439Z,6.00
2022-09-07T01:41:25.493Z,2.73
2022-09-07T01:44:01.041Z,2.47
2022-09-07T01:46:36.397Z,2.77
2022-09-07T01:49:10.448Z,2.60
2022-09-07T01:51:42.547Z,4.47
2022-09-07T01:54:21.389Z,2.53
2022-09-07T01:56:51.139Z,4.33
2022-09-07T01:59:28.675Z,4.03
2022-09-07T02:02:04.215Z,4.70
2022-09-07T02:04:48.625Z,6.43
2022-09-07T02:07:26.910Z,2.70
2022-09-07T02:10:06.617Z,5.43
2022-09-07T02:12:39.441Z,3.63
2022-09-07T02:15:14.737Z,3.17
2022-09-07T02:17:54.431Z,4.10
2022-09-07T02:20:29.495Z,5.00
2022-09-07T02:23:00.395Z,3.67
2022-09-07T02:25:37.891Z,4.03
2022-09-07T02:28:12.452Z,3.90
2022-09-07T02:30:39.134Z,5.07
2022-09-07T02:33:06.023Z,4.97
2022-09-07T02:35:33.188Z,4.33
2022-09-07T02:38:03.142Z,4.87
2022-09-07T02:40:30.022Z,4.83
2022-09-07T02:43:00.196Z,3.43
2022-09-07T02:45:33.779Z,4.47
2022-09-07T02:48:06.439Z,4.47
2022-09-07T02:50:58.732Z,3.50
2022-09-07T02:53:39.560Z,3.07
2022-09-07T02:56:39.183Z,4.43
2022-09-07T02:59:30.313Z,2.73
2022-09-07T03:02:12.352Z,2.90
2022-09-07T03:04:48.913Z,4.57
2022-09-07T03:07:29.478Z,2.87
2022-09-07T03:09:57.999Z,2.80
2022-09-07T03:12:24.950Z,5.67
2022-09-07T03:14:51.551Z,2.77
2022-09-07T03:17:18.267Z,5.37
2022-09-07T03:19:44.863Z,3.17
2022-09-07T03:22:11.491Z,4.77
2022-09-07T03:24:38.100Z,5.90
2022-09-07T03:27:04.737Z,4.07
2022-09-07T03:29:31.400Z,7.33
2022-09-07T03:31:57.979Z,3.00
2022-09-07T03:34:24.570Z,3.60
2022-09-07T03:36:51.143Z,5.03
2022-09-07T03:39:20.973Z,3.43
2022-09-07T03:41:47.910Z,5.53
2022-09-07T03:44:14.526Z,4.83
2022-09-07T03:46:41.194Z,3.17
2022-09-07T03:49:07.769Z,3.43
2022-09-07T03:51:34.331Z,3.40
2022-09-07T03:54:00.951Z,3.40
2022-09-07T03:56:28.272Z,4.70
2022-09-07T03:58:55.665Z,5.00
2022-09-07T04:01:24.815Z,3.20
2022-09-07T04:03:52.122Z,6.03
2022-09-07T04:06:19.841Z,4.83
2022-09-07T04:08:46.689Z,4.83
2022-09-07T04:11:16.385Z,6.30
2022-09-07T04:13:43.454Z,4.47
2022-09-07T04:16:24.235Z,3.07
2022-09-07T04:18:54.701Z,7.37
2022-09-07T04:21:27.032Z,6.70
2022-09-07T04:23:53.876Z,3.90
2022-09-07T04:26:32.380Z,4.07
2022-09-07T04:29:01.172Z,3.20
2022-09-07T04:31:28.825Z,4.83
2022-09-07T04:33:56.514Z,3.50
2022-09-07T04:36:24.926Z,4.43
2022-09-07T04:38:56.965Z,3.53
2022-09-07T04:41:24.288Z,3.23
2022-09-07T04:43:55.245Z,5.90
2022-09-07T04:46:33.933Z,3.40
2022-09-07T04:49:04.021Z,5.27
2022-09-07T04:51:32.193Z,5.13
2022-09-07T04:54:00.862Z,6.03
2022-09-07T04:56:27.440Z,5.67
2022-09-07T04:58:54.391Z,5.70
2022-09-07T05:01:23.394Z,3.57
2022-09-07T05:03:50.322Z,3.20
2022-09-07T05:06:18.986Z,3.47
2022-09-07T05:08:51.652Z,4.40
2022-09-07T05:11:18.995Z,5.43
2022-09-07T05:13:45.852Z,3.53
2022-09-07T05:16:21.173Z,4.47
2022-09-07T05:18:53.130Z,5.37
2022-09-07T05:21:22.870Z,4.37
2022-09-07T05:23:51.436Z,4.57
2022-09-07T05:26:19.196Z,4.50
2022-09-07T05:28:46.156Z,8.43
2022-09-07T05:36:37.359Z,6.27
2022-09-07T05:39:05.901Z,4.53
2022-09-07T05:41:32.521Z,4.77
2022-09-07T05:46:45.793Z,4.83
2022-09-07T05:49:12.744Z,5.10
2022-09-07T05:51:39.349Z,5.93
2022-09-07T05:54:06.040Z,6.13
2022-09-07T05:56:36.440Z,9.97
2022-09-07T05:59:03.710Z,6.17
2022-09-07T06:01:30.868Z,4.03
2022-09-07T06:03:58.039Z,3.83
2022-09-07T06:06:24.674Z,5.53
2022-09-07T06:08:52.794Z,6.50
2022-09-07T06:11:24.335Z,4.30
2022-09-07T06:13:52.070Z,5.20
2022-09-07T06:16:20.230Z,4.27
2022-09-07T06:18:48.978Z,7.30
2022-09-07T06:21:21.097Z,7.03
2022-09-07T06:23:48.851Z,4.73
2022-09-07T06:26:17.118Z,4.50
2022-09-07T06:28:49.175Z,10.90
2022-09-07T06:31:19.913Z,5.90
2022-09-07T06:33:47.840Z,4.40
2022-09-07T06:36:19.904Z,5.30
2022-09-07T06:38:47.613Z,6.10
2022-09-07T06:44:12.651Z,8.57
2022-09-07T06:49:26.287Z,7.53
2022-09-07T06:51:53.218Z,5.37
2022-09-07T06:57:09.414Z,7.67
2022-09-07T06:59:37.303Z,10.03
2022-09-07T07:02:05.976Z,6.83
2022-09-07T07:04:37.760Z,5.97
2022-09-07T07:07:06.536Z,7.47
2022-09-07T07:09:33.193Z,6.47
2022-09-07T07:11:59.756Z,10.77
2022-09-07T07:14:26.874Z,6.00
2022-09-07T07:16:53.996Z,6.67
2022-09-07T07:19:20.569Z,6.20
2022-09-07T07:22:14.467Z,7.77
2022-09-07T07:24:33.666Z,6.47
2022-09-07T07:27:00.440Z,7.50
2022-09-07T07:29:28.287Z,8.83
2022-09-07T07:31:55.160Z,9.00
2022-09-07T07:34:21.940Z,7.50
2022-09-07T07:36:48.491Z,13.83
2022-09-07T07:42:05.861Z,7.93
2022-09-07T07:44:32.922Z,7.80
2022-09-07T07:46:59.703Z,9.43
2022-09-07T07:49:26.885Z,8.17
2022-09-07T07:54:44.133Z,8.60
2022-09-07T07:57:11.848Z,9.50
2022-09-07T07:59:39.223Z,9.90
2022-09-07T08:02:08.995Z,9.50
2022-09-07T08:04:36.301Z,9.83
2022-09-07T08:07:09.506Z,10.17
2022-09-07T08:09:44.876Z,10.50
2022-09-07T08:12:16.712Z,9.97
2022-09-07T08:14:43.556Z,10.67
2022-09-07T08:17:12.424Z,12.87
2022-09-07T08:19:39.087Z,10.43
2022-09-07T08:22:06.408Z,10.17
2022-09-07T08:24:33.561Z,9.70
2022-09-07T08:27:00.118Z,10.47
2022-09-07T08:29:27.290Z,10.47
2022-09-07T08:31:54.493Z,9.57
2022-09-07T08:34:22.023Z,10.77
2022-09-07T08:36:48.808Z,9.23
2022-09-07T08:39:15.430Z,13.50
2022-09-07T08:41:51.191Z,9.80
2022-09-07T08:44:48.232Z,10.03
2022-09-07T08:47:35.143Z,9.17
2022-09-07T08:50:04.482Z,8.70
2022-09-07T08:52:54.360Z,8.20
2022-09-07T08:55:29.352Z,8.70
2022-09-07T08:58:04.637Z,8.30
2022-09-07T09:00:31.593Z,8.53
2022-09-07T09:06:00.231Z,11.47
2022-09-07T09:08:48.659Z,7.53
2022-09-07T09:11:48.155Z,8.07
2022-09-07T09:17:35.420Z,7.37
2022-09-07T09:20:26.620Z,8.83
2022-09-07T09:23:12.283Z,8.57
2022-09-07T09:25:45.937Z,9.83
2022-09-07T09:28:13.000Z,8.03
2022-09-07T09:30:39.681Z,9.07
2022-09-07T09:33:25.900Z,10.43
2022-09-07T09:35:55.041Z,8.57
2022-09-07T09:38:32.169Z,8.20
2022-09-07T09:41:11.182Z,8.97
2022-09-07T09:43:58.216Z,8.27
2022-09-07T09:46:37.246Z,7.43
2022-09-07T09:49:14.332Z,7.77
2022-09-07T09:54:40.777Z,7.30
2022-09-07T09:57:16.831Z,7.53
2022-09-07T10:00:02.665Z,9.30
2022-09-07T10:05:28.125Z,8.13
2022-09-07T10:07:55.062Z,8.00
2022-09-07T10:10:21.792Z,6.70
2022-09-07T10:12:55.866Z,9.03
2022-09-07T10:15:40.574Z,7.83
2022-09-07T10:18:18.745Z,7.53
2022-09-07T10:20:45.450Z,9.07
2022-09-07T10:23:23.342Z,7.40
2022-09-07T10:25:50.082Z,7.77
2022-09-07T10:28:20.295Z,9.13
2022-09-07T10:31:15.010Z,7.93
2022-09-07T10:37:03.584Z,8.50
2022-09-07T10:39:40.640Z,10.13
2022-09-07T10:42:22.387Z,11.40
2022-09-07T10:45:04.407Z,8.73
2022-09-07T10:47:33.982Z,7.70
2022-09-07T10:50:24.935Z,8.43
2022-09-07T10:52:51.451Z,8.60
2022-09-07T10:55:26.220Z,7.37
2022-09-07T10:58:07.994Z,12.07
2022-09-07T11:00:45.843Z,10.67
2022-09-07T11:03:28.153Z,8.17
2022-09-07T11:06:19.070Z,7.83
2022-09-07T11:09:18.104Z,9.73
2022-09-07T11:12:03.085Z,10.20
2022-09-07T11:14:36.846Z,19.30
2022-09-07T11:17:17.169Z,8.67
2022-09-07T11:19:54.011Z,7.17
2022-09-07T11:22:39.271Z,9.97
2022-09-07T11:25:35.079Z,7.47
2022-09-07T11:28:21.072Z,8.80
2022-09-07T11:31:00.395Z,8.80
2022-09-07T11:33:35.118Z,12.07
2022-09-07T11:36:12.032Z,7.23
2022-09-07T11:38:49.475Z,7.93
2022-09-07T11:41:46.152Z,8.93
2022-09-07T11:44:26.610Z,7.57
2022-09-07T11:47:34.727Z,10.73
2022-09-07T11:50:01.331Z,10.43
2022-09-07T11:52:43.169Z,9.37
2022-09-07T11:55:21.046Z,9.23
2022-09-07T11:58:00.173Z,10.00
2022-09-07T12:01:04.271Z,11.63
2022-09-07T12:03:53.839Z,7.77
2022-09-07T12:06:43.314Z,9.27
2022-09-07T12:09:37.880Z,8.30
2022-09-07T12:12:25.850Z,8.83
2022-09-07T12:15:33.086Z,7.27
2022-09-07T12:18:05.620Z,14.43
2022-09-07T12:20:46.637Z,9.00
2022-09-07T12:23:16.102Z,6.57
2022-09-07T12:25:44.701Z,8.17
2022-09-07T12:28:34.483Z,7.80
2022-09-07T12:31:06.985Z,8.97
2022-09-07T12:33:36.661Z,9.13
2022-09-07T12:36:25.863Z,7.70
2022-09-07T12:39:06.307Z,6.87
2022-09-07T12:42:31.929Z,7.43
2022-09-07T12:44:38.189Z,7.57
2022-09-07T12:47:10.725Z,8.00
2022-09-07T12:50:06.476Z,8.20
2022-09-07T12:53:07.935Z,6.67
2022-09-07T12:59:19.484Z,7.07
2022-09-07T13:02:27.784Z,6.20
2022-09-07T13:04:54.464Z,10.83
2022-09-07T13:08:07.986Z,7.50
2022-09-07T13:10:43.070Z,6.40
2022-09-07T13:13:15.830Z,6.87
2022-09-07T13:15:49.484Z,6.07
2022-09-07T13:18:28.653Z,7.27
2022-09-07T13:21:07.306Z,5.83
2022-09-07T13:23:35.780Z,5.17
2022-09-07T13:26:04.834Z,5.30
2022-09-07T13:28:40.170Z,7.97
2022-09-07T13:31:41.084Z,6.60
2022-09-07T13:34:32.554Z,6.10
2022-09-07T13:37:00.569Z,6.43
2022-09-07T13:39:29.083Z,4.50
2022-09-07T13:41:58.311Z,4.90
2022-09-07T13:44:32.211Z,4.50
2022-09-07T13:47:26.431Z,4.87
2022-09-07T13:50:19.421Z,5.23
2022-09-07T13:53:01.292Z,4.87
2022-09-07T13:55:37.602Z,5.53
2022-09-07T13:58:25.245Z,5.20
2022-09-07T14:01:04.646Z,4.60
2022-09-07T14:03:39.291Z,5.03
2022-09-07T14:06:21.305Z,6.33
2022-09-07T14:08:50.632Z,5.67
2022-09-07T14:11:22.433Z,5.17
2022-09-07T14:14:25.942Z,4.27
2022-09-07T14:17:01.893Z,5.47
2022-09-07T14:19:41.874Z,4.87
2022-09-07T14:22:39.625Z,4.30
2022-09-07T14:25:07.839Z,4.20
2022-09-07T14:27:46.312Z,4.60
2022-09-07T14:30:29.441Z,5.87
2022-09-07T14:33:17.290Z,4.83
2022-09-07T14:35:44.311Z,4.33
2022-09-07T14:38:14.290Z,5.60
2022-09-07T14:40:41.553Z,4.43
2022-09-07T14:43:28.600Z,4.23
2022-09-07T14:46:30.073Z,4.50
2022-09-07T14:49:02.594Z,5.23
2022-09-07T14:51:36.140Z,4.33
2022-09-07T14:54:07.941Z,4.80
2022-09-07T14:56:38.093Z,4.50
2022-09-07T14:59:40.699Z,4.40
2022-09-07T15:02:19.736Z,4.17
2022-09-07T15:04:48.073Z,4.80
2022-09-07T15:07:30.590Z,5.23
2022-09-07T15:10:32.398Z,5.00
2022-09-07T15:13:01.384Z,4.63
2022-09-07T15:15:34.633Z,4.33
2022-09-07T15:18:08.804Z,4.80
2022-09-07T15:20:36.927Z,5.40
2022-09-07T15:23:29.911Z,5.83
2022-09-07T15:25:58.756Z,4.50
2022-09-07T15:34:19.350Z,6.03
2022-09-07T15:36:53.609Z,5.00
2022-09-07T15:39:26.643Z,6.30
2022-09-07T15:41:53.474Z,5.80
2022-09-07T15:44:24.961Z,5.90
2022-09-07T15:49:53.775Z,6.13
2022-09-07T15:52:20.656Z,6.40
2022-09-07T15:54:47.162Z,5.30
2022-09-07T16:00:00.835Z,6.63
2022-09-07T16:05:14.231Z,6.47
2022-09-07T16:10:31.016Z,5.37
2022-09-07T16:13:02.698Z,5.40
2022-09-07T16:15:30.367Z,5.70
2022-09-07T16:17:57.121Z,5.70
2022-09-07T16:20:23.745Z,6.87
2022-09-07T16:25:37.476Z,6.20
2022-09-07T16:28:05.811Z,6.33
2022-09-07T16:30:32.825Z,6.37
2022-09-07T16:32:59.472Z,6.37
2022-09-07T16:35:26.031Z,7.63
2022-09-07T16:40:42.223Z,7.70
2022-09-07T16:43:10.006Z,6.67
2022-09-07T16:48:23.412Z,7.07
2022-09-07T16:50:58.941Z,6.03
2022-09-07T16:53:32.216Z,6.43
2022-09-07T16:56:12.522Z,6.57
2022-09-07T16:58:41.955Z,7.83
2022-09-07T17:01:10.811Z,8.17
2022-09-07T17:03:38.637Z,8.93
2022-09-07T17:06:07.967Z,7.90
2022-09-07T17:08:36.143Z,8.33
2022-09-07T17:11:05.586Z,8.77
2022-09-07T17:13:34.094Z,11.17
2022-09-07T17:16:08.344Z,9.57
2022-09-07T17:21:22.771Z,9.67
2022-09-07T17:23:54.916Z,8.50
2022-09-07T17:26:26.585Z,9.10
2022-09-07T17:29:00.213Z,8.47
2022-09-07T17:34:23.241Z,8.00
2022-09-07T17:36:49.832Z,8.70
2022-09-07T17:39:17.992Z,7.47
2022-09-07T17:41:45.674Z,8.37
2022-09-07T17:44:12.465Z,8.30
2022-09-07T17:46:39.422Z,8.10
2022-09-07T17:49:10.403Z,8.07
2022-09-07T17:51:37.064Z,8.40
2022-09-07T17:54:10.921Z,8.63
2022-09-07T17:56:39.284Z,9.63
2022-09-07T18:01:54.297Z,10.13
2022-09-07T18:04:21.385Z,10.10
2022-09-07T18:06:48.435Z,10.43
2022-09-07T18:09:15.106Z,11.13
2022-09-07T18:11:45.946Z,10.93
2022-09-07T18:14:14.577Z,10.73
2022-09-07T18:16:43.462Z,9.43
2022-09-07T18:19:12.120Z,10.43
2022-09-07T18:21:41.098Z,11.03
2022-09-07T18:24:19.244Z,10.83
2022-09-07T18:26:52.047Z,10.50
2022-09-07T18:29:30.005Z,10.67
2022-09-07T18:32:00.326Z,10.20
2022-09-07T18:34:28.755Z,10.23
2022-09-07T18:36:55.540Z,11.10
2022-09-07T18:39:23.101Z,11.60
2022-09-07T18:41:49.808Z,11.50
2022-09-07T18:47:03.635Z,11.30
2022-09-07T18:49:30.787Z,12.13
2022-09-07T18:54:45.469Z,11.03
2022-09-07T18:57:16.234Z,12.67
2022-09-07T18:59:43.688Z,12.27
2022-09-07T19:02:11.251Z,11.23
2022-09-07T19:07:29.670Z,11.37
2022-09-07T19:09:56.842Z,11.10
2022-09-07T19:12:24.785Z,12.07
2022-09-07T19:14:51.945Z,11.50
2022-09-07T19:17:20.598Z,11.93
2022-09-07T19:19:48.604Z,11.37
2022-09-07T19:22:16.083Z,11.43
2022-09-07T19:24:42.685Z,10.90
2022-09-07T19:27:09.969Z,11.67
2022-09-07T19:29:36.490Z,11.03
2022-09-07T19:32:06.979Z,11.23
2022-09-07T19:34:36.042Z,11.17
2022-09-07T19:37:04.537Z,11.07
2022-09-07T19:39:32.174Z,10.90
2022-09-07T19:42:00.182Z,11.83
2022-09-07T19:44:26.818Z,12.90
2022-09-07T19:46:54.187Z,12.73
2022-09-07T19:49:21.495Z,12.27
2022-09-07T19:51:52.221Z,11.90
2022-09-07T19:54:19.263Z,12.70
2022-09-07T19:56:46.709Z,12.23
2022-09-07T19:59:14.782Z,12.37
2022-09-07T20:01:46.539Z,11.97
2022-09-07T20:04:19.809Z,12.67
2022-09-07T20:06:48.504Z,11.57
2022-09-07T20:09:15.081Z,13.20
2022-09-07T20:11:46.278Z,12.80
2022-09-07T20:14:13.797Z,14.60
2022-09-07T20:16:41.753Z,12.17
2022-09-07T20:19:11.009Z,12.07
2022-09-07T20:21:37.631Z,12.43
2022-09-07T20:24:05.275Z,10.97
2022-09-07T20:26:32.606Z,11.17
2022-09-07T20:29:16.705Z,11.50
2022-09-07T20:31:47.085Z,12.33
2022-09-07T20:34:14.445Z,11.53
2022-09-07T20:36:41.506Z,11.00
2022-09-07T20:39:08.143Z,12.07
2022-09-07T20:41:35.187Z,11.23
2022-09-07T20:44:04.345Z,13.30
2022-09-07T20:46:31.875Z,11.60
2022-09-07T20:48:59.199Z,11.20
2022-09-07T20:51:26.178Z,12.13
2022-09-07T20:53:52.889Z,12.37
2022-09-07T20:56:29.225Z,13.40
2022-09-07T20:59:00.124Z,12.30
2022-09-07T21:01:27.810Z,12.00
2022-09-07T21:03:56.635Z,14.10
2022-09-07T21:06:25.071Z,12.50
2022-09-07T21:08:52.385Z,12.83
2022-09-07T21:11:24.783Z,12.20
2022-09-07T21:14:08.356Z,12.17
2022-09-07T21:16:36.406Z,13.20
2022-09-07T21:19:05.895Z,12.50
2022-09-07T21:21:39.430Z,12.77
2022-09-07T21:24:07.494Z,13.47
2022-09-07T21:26:34.032Z,13.70
2022-09-07T21:29:02.809Z,14.17
2022-09-07T21:31:31.332Z,13.43
2022-09-07T21:34:00.114Z,13.93
2022-09-07T21:36:27.409Z,14.07
2022-09-07T21:38:54.459Z,14.87
2022-09-07T21:41:22.876Z,15.30
2022-09-07T21:43:53.679Z,14.47
2022-09-07T21:46:20.293Z,16.10
2022-09-07T21:48:46.876Z,16.70
2022-09-07T21:51:14.335Z,17.50
2022-09-07T21:53:42.071Z,17.47
2022-09-07T21:56:14.118Z,17.60
2022-09-07T21:58:41.093Z,17.80
2022-09-07T22:01:12.700Z,16.63
2022-09-07T22:03:40.419Z,18.97
2022-09-07T22:06:08.437Z,20.80
2022-09-07T22:08:37.026Z,21.97
2022-09-07T22:11:26.790Z,20.13
2022-09-07T22:13:55.770Z,20.37
2022-09-07T22:16:22.552Z,20.27
2022-09-07T22:18:49.445Z,20.50
2022-09-07T22:21:19.887Z,22.13
2022-09-07T22:23:49.893Z,20.30
2022-09-07T22:26:21.539Z,20.20
2022-09-07T22:28:48.707Z,20.63
2022-09-07T22:31:17.230Z,20.80
2022-09-07T22:33:45.012Z,19.77
2022-09-07T22:36:15.717Z,20.13
2022-09-07T22:38:44.034Z,19.50
2022-09-07T22:41:19.885Z,19.30
2022-09-07T22:43:46.887Z,18.77
2022-09-07T22:46:14.927Z,18.77
2022-09-07T22:48:42.139Z,19.17
2022-09-07T22:51:09.523Z,18.53
2022-09-07T22:53:37.783Z,19.30
2022-09-07T22:56:10.593Z,22.10
2022-09-07T22:58:37.761Z,22.97
2022-09-07T23:01:05.926Z,20.70
2022-09-07T23:03:34.541Z,21.60
2022-09-07T23:06:01.889Z,20.17
2022-09-07T23:08:28.998Z,22.47
2022-09-07T23:10:55.574Z,21.33
2022-09-07T23:13:22.225Z,22.97
2022-09-07T23:15:49.468Z,22.13
2022-09-07T23:18:18.818Z,22.90
2022-09-07T23:20:45.731Z,24.17
2022-09-07T23:23:13.422Z,22.20
2022-09-07T23:25:42.284Z,22.70
2022-09-07T23:28:12.581Z,21.40
2022-09-07T23:30:42.396Z,23.50
2022-09-07T23:33:08.928Z,25.43
2022-09-07T23:35:36.046Z,24.60
2022-09-07T23:38:02.684Z,24.67
2022-09-07T23:40:30.495Z,24.50
2022-09-07T23:42:57.507Z,21.50
2022-09-07T23:45:24.779Z,22.23
2022-09-07T23:47:51.407Z,21.87
2022-09-07T23:50:18.587Z,20.53
2022-09-07T23:52:45.493Z,22.03
2022-09-07T23:55:12.222Z,20.37
2022-09-07T23:57:39.038Z,22.70
